Country
Station

 

Weather  for  Warszawa-Okecie  -  Poland    Poland

  
4 °C (39 °F)
    
 
 

Current METAR for Warszawa-Okecie is :

EPWA 161830Z 09007KT 9999 BKN023 04/M00 Q1041 NOSIG

 

This is a report for Warszawa-Okecie - Poland.
 
The report was made 32 minutes ago, at 18:30 UTC .
The wind was blowing at a speed of 3.6 meters per second (8.1 miles per hour) from east (090°).
 
The temperature was 4 °C (39 °F)
The temperature felt like 0 °C (33 °F).
 
The atmospheric pressure was 1041 hPa (30.74 inHg).
There were broken clouds at a height of 701 meters (2300 feet).
 
The overall visibility was greater than 10 kilometers (6.2 miles).
 

 
 
 
 

Country :   A   B   C   D   E   F   G   H   I   J   K   L   M   N   O   P   Q   R   S   T   U   V   W   Y   Z

 

Site Info  |  Disclaimer  |  Credits  |  Privacy
Contact us  |  Add to favorites
© 2013-2018 METARs - All rights reserved